DAL1878 KDHN-KHSV
Flight info
| Callsign | DAL1878 |
|---|---|
| Flight time | 0h 51m |
| Altitude | 30000 |
| Route | BGGNS DIODE |
| Aircraft | CRJ2/M-SDFGIRW/S |
Departure
| Time | 2026-04-24 09:30 |
|---|---|
| Airport | Dothan Regional Airport (KDHN) |
Arrival
| Time | 2026-04-24 10:21 |
|---|---|
| Airport | Huntsville International Airport (KHSV) |
| Time | Latitude | Longitude | Altitude | Speed | Heading |
|---|---|---|---|---|---|
| 2026-04-24 09:02 | 31.31903 | -85.45192 | 407 ft | 0 kts | 221° |
| 2026-04-24 09:03 | 31.31902 | -85.45192 | 407 ft | 0 kts | 221° |
| 2026-04-24 09:06 | 31.31902 | -85.45193 | 407 ft | 0 kts | 221° |
| 2026-04-24 09:07 | 31.31901 | -85.45193 | 407 ft | 0 kts | 221° |
| 2026-04-24 09:10 | 31.31901 | -85.45194 | 407 ft | 0 kts | 221° |
| 2026-04-24 09:11 | 31.31900 | -85.45194 | 407 ft | 0 kts | 221° |
| 2026-04-24 09:14 | 31.31900 | -85.45195 | 407 ft | 0 kts | 221° |
| 2026-04-24 09:15 | 31.31899 | -85.45195 | 407 ft | 0 kts | 221° |
| 2026-04-24 09:16 | 31.31902 | -85.45192 | 407 ft | 2 kts | 221° |
| 2026-04-24 09:16 | 31.31910 | -85.45177 | 407 ft | 3 kts | 253° |
| 2026-04-24 09:16 | 31.31910 | -85.45155 | 407 ft | 3 kts | 290° |
| 2026-04-24 09:16 | 31.31902 | -85.45141 | 407 ft | 1 kts | 311° |
| 2026-04-24 09:17 | 31.31903 | -85.45141 | 407 ft | 0 kts | 311° |
| 2026-04-24 09:19 | 31.31903 | -85.45142 | 407 ft | 0 kts | 311° |
| 2026-04-24 09:21 | 31.31909 | -85.45149 | 407 ft | 5 kts | 322° |
| 2026-04-24 09:22 | 31.31943 | -85.45109 | 407 ft | 13 kts | 52° |
| 2026-04-24 09:22 | 31.32036 | -85.45070 | 407 ft | 14 kts | 4° |
| 2026-04-24 09:22 | 31.32120 | -85.45010 | 407 ft | 14 kts | 75° |
| 2026-04-24 09:22 | 31.32127 | -85.44880 | 407 ft | 17 kts | 89° |
| 2026-04-24 09:23 | 31.32128 | -85.44763 | 407 ft | 16 kts | 90° |
| 2026-04-24 09:23 | 31.32128 | -85.44629 | 407 ft | 15 kts | 92° |
| 2026-04-24 09:23 | 31.32090 | -85.44588 | 407 ft | 8 kts | 195° |
| 2026-04-24 09:23 | 31.31997 | -85.44635 | 407 ft | 22 kts | 214° |
| 2026-04-24 09:24 | 31.31847 | -85.44704 | 407 ft | 20 kts | 180° |
| 2026-04-24 09:24 | 31.31724 | -85.44705 | 407 ft | 17 kts | 179° |
| 2026-04-24 09:24 | 31.31629 | -85.44676 | 407 ft | 14 kts | 142° |
| 2026-04-24 09:24 | 31.31576 | -85.44603 | 407 ft | 9 kts | 129° |
| 2026-04-24 09:25 | 31.31520 | -85.44555 | 407 ft | 11 kts | 149° |
| 2026-04-24 09:25 | 31.31444 | -85.44501 | 407 ft | 14 kts | 142° |
| 2026-04-24 09:25 | 31.31380 | -85.44439 | 407 ft | 12 kts | 140° |
| 2026-04-24 09:25 | 31.31320 | -85.44376 | 407 ft | 8 kts | 109° |
| 2026-04-24 09:26 | 31.31351 | -85.44320 | 407 ft | 10 kts | 32° |
| 2026-04-24 09:26 | 31.31383 | -85.44293 | 407 ft | 1 kts | 36° |
| 2026-04-24 09:26 | 31.31398 | -85.44281 | 407 ft | 5 kts | 36° |
| 2026-04-24 09:26 | 31.31435 | -85.44266 | 407 ft | 7 kts | 321° |
| 2026-04-24 09:27 | 31.31442 | -85.44274 | 407 ft | 0 kts | 317° |
| 2026-04-24 09:29 | 31.31515 | -85.44352 | 407 ft | 37 kts | 317° |
| 2026-04-24 09:29 | 31.31835 | -85.44738 | 407 ft | 88 kts | 318° |
| 2026-04-24 09:30 | 31.32469 | -85.45483 | 447 ft | 165 kts | 314° |
| 2026-04-24 09:30 | 31.33391 | -85.46530 | 859 ft | 204 kts | 318° |
| 2026-04-24 09:30 | 31.34530 | -85.47658 | 1544 ft | 227 kts | 321° |
| 2026-04-24 09:30 | 31.35844 | -85.48811 | 2119 ft | 232 kts | 325° |
| 2026-04-24 09:31 | 31.37060 | -85.49746 | 3226 ft | 165 kts | 329° |
| 2026-04-24 09:31 | 31.38073 | -85.50428 | 3567 ft | 188 kts | 332° |
| 2026-04-24 09:31 | 31.39336 | -85.51200 | 3982 ft | 211 kts | 334° |
| 2026-04-24 09:31 | 31.40660 | -85.51962 | 4755 ft | 211 kts | 335° |
| 2026-04-24 09:32 | 31.42086 | -85.52765 | 4812 ft | 248 kts | 335° |
| 2026-04-24 09:32 | 31.43735 | -85.53691 | 4942 ft | 270 kts | 335° |
| 2026-04-24 09:32 | 31.45442 | -85.54648 | 5349 ft | 272 kts | 335° |
| 2026-04-24 09:32 | 31.47212 | -85.55386 | 5730 ft | 270 kts | 354° |
| 2026-04-24 09:33 | 31.49048 | -85.55132 | 6155 ft | 265 kts | 18° |
| 2026-04-24 09:33 | 31.50853 | -85.54696 | 6557 ft | 266 kts | 8° |
| 2026-04-24 09:33 | 31.52677 | -85.54712 | 6950 ft | 265 kts | 355° |
| 2026-04-24 09:33 | 31.54486 | -85.55092 | 7356 ft | 264 kts | 347° |
| 2026-04-24 09:34 | 31.56244 | -85.55680 | 7756 ft | 262 kts | 343° |
| 2026-04-24 09:34 | 31.57965 | -85.56369 | 8155 ft | 261 kts | 341° |
| 2026-04-24 09:34 | 31.59665 | -85.57098 | 8553 ft | 259 kts | 340° |
| 2026-04-24 09:34 | 31.61353 | -85.57841 | 8951 ft | 258 kts | 340° |
| 2026-04-24 09:35 | 31.63027 | -85.58583 | 9352 ft | 257 kts | 339° |
| 2026-04-24 09:35 | 31.64699 | -85.59325 | 9749 ft | 255 kts | 339° |
| 2026-04-24 09:35 | 31.66352 | -85.60058 | 10150 ft | 253 kts | 339° |
| 2026-04-24 09:35 | 31.67993 | -85.60785 | 10548 ft | 251 kts | 339° |
| 2026-04-24 09:36 | 31.69620 | -85.61507 | 10946 ft | 249 kts | 339° |
| 2026-04-24 09:36 | 31.71234 | -85.62222 | 11345 ft | 247 kts | 339° |
| 2026-04-24 09:36 | 31.72837 | -85.62933 | 11743 ft | 245 kts | 339° |
| 2026-04-24 09:36 | 31.74423 | -85.63636 | 12140 ft | 243 kts | 338° |
| 2026-04-24 09:37 | 31.75996 | -85.64334 | 12536 ft | 240 kts | 338° |
| 2026-04-24 09:37 | 31.77534 | -85.65017 | 12930 ft | 238 kts | 338° |
| 2026-04-24 09:37 | 31.79081 | -85.65704 | 13328 ft | 236 kts | 338° |
| 2026-04-24 09:37 | 31.80610 | -85.66383 | 13725 ft | 234 kts | 338° |
| 2026-04-24 09:38 | 31.82126 | -85.67057 | 14121 ft | 231 kts | 338° |
| 2026-04-24 09:38 | 31.83626 | -85.67723 | 14519 ft | 229 kts | 338° |
| 2026-04-24 09:38 | 31.85107 | -85.68382 | 14915 ft | 227 kts | 338° |
| 2026-04-24 09:38 | 31.86576 | -85.69036 | 15312 ft | 224 kts | 338° |
| 2026-04-24 09:39 | 31.88019 | -85.69678 | 15707 ft | 226 kts | 338° |
| 2026-04-24 09:39 | 31.89508 | -85.70342 | 16114 ft | 231 kts | 338° |
| 2026-04-24 09:39 | 31.91024 | -85.71018 | 16520 ft | 235 kts | 338° |
| 2026-04-24 09:39 | 31.92565 | -85.71705 | 16926 ft | 238 kts | 338° |
| 2026-04-24 09:40 | 31.94127 | -85.72402 | 17330 ft | 240 kts | 338° |
| 2026-04-24 09:40 | 31.95696 | -85.73101 | 17733 ft | 242 kts | 338° |
| 2026-04-24 09:40 | 31.97272 | -85.73804 | 18133 ft | 242 kts | 338° |
| 2026-04-24 09:40 | 31.98862 | -85.74513 | 18537 ft | 246 kts | 338° |
| 2026-04-24 09:41 | 32.00476 | -85.75234 | 18942 ft | 250 kts | 337° |
| 2026-04-24 09:41 | 32.02090 | -85.75955 | 19341 ft | 253 kts | 337° |
| 2026-04-24 09:41 | 32.03743 | -85.76693 | 19745 ft | 255 kts | 337° |
| 2026-04-24 09:41 | 32.05403 | -85.77435 | 20183 ft | 255 kts | 337° |
| 2026-04-24 09:42 | 32.07068 | -85.78179 | 20677 ft | 256 kts | 337° |
| 2026-04-24 09:42 | 32.08737 | -85.78925 | 21176 ft | 257 kts | 337° |
| 2026-04-24 09:42 | 32.10411 | -85.79673 | 21677 ft | 257 kts | 337° |
| 2026-04-24 09:42 | 32.12083 | -85.80421 | 22176 ft | 257 kts | 337° |
| 2026-04-24 09:43 | 32.13752 | -85.81168 | 22676 ft | 256 kts | 337° |
| 2026-04-24 09:43 | 32.15415 | -85.81912 | 23174 ft | 255 kts | 337° |
| 2026-04-24 09:43 | 32.17081 | -85.82659 | 23675 ft | 256 kts | 337° |
| 2026-04-24 09:43 | 32.18749 | -85.83407 | 24175 ft | 258 kts | 337° |
| 2026-04-24 09:44 | 32.20430 | -85.84161 | 24677 ft | 258 kts | 337° |
| 2026-04-24 09:44 | 32.22111 | -85.84915 | 25177 ft | 259 kts | 337° |
| 2026-04-24 09:44 | 32.23795 | -85.85671 | 25678 ft | 258 kts | 336° |
| 2026-04-24 09:44 | 32.25451 | -85.86414 | 26170 ft | 258 kts | 336° |
| 2026-04-24 09:45 | 32.27125 | -85.87165 | 26669 ft | 257 kts | 336° |
| 2026-04-24 09:45 | 32.28805 | -85.87920 | 27159 ft | 260 kts | 336° |
| 2026-04-24 09:45 | 32.30517 | -85.88691 | 27624 ft | 265 kts | 336° |
| 2026-04-24 09:45 | 32.32258 | -85.89476 | 28081 ft | 270 kts | 336° |
| 2026-04-24 09:46 | 32.34031 | -85.90274 | 28538 ft | 273 kts | 336° |
| 2026-04-24 09:46 | 32.35818 | -85.91078 | 28992 ft | 276 kts | 336° |
| 2026-04-24 09:46 | 32.37623 | -85.91891 | 29445 ft | 278 kts | 336° |
| 2026-04-24 09:46 | 32.39421 | -85.92701 | 29863 ft | 281 kts | 336° |
| 2026-04-24 09:47 | 32.41272 | -85.93535 | 30167 ft | 288 kts | 336° |
| 2026-04-24 09:47 | 32.43186 | -85.94401 | 30292 ft | 299 kts | 336° |
| 2026-04-24 09:47 | 32.45172 | -85.95300 | 30343 ft | 311 kts | 336° |
| 2026-04-24 09:47 | 32.47227 | -85.96229 | 30343 ft | 319 kts | 336° |
| 2026-04-24 09:48 | 32.51346 | -85.98084 | 30327 ft | 306 kts | 336° |
| 2026-04-24 09:48 | 32.53271 | -85.98945 | 30318 ft | 289 kts | 336° |
| 2026-04-24 09:48 | 32.55134 | -85.99783 | 30319 ft | 287 kts | 336° |
| 2026-04-24 09:49 | 32.57035 | -86.00607 | 30326 ft | 294 kts | 338° |
| 2026-04-24 09:49 | 32.59013 | -86.01341 | 30330 ft | 302 kts | 340° |
| 2026-04-24 09:49 | 32.63165 | -86.02689 | 30334 ft | 314 kts | 341° |
| 2026-04-24 09:50 | 32.67437 | -86.04075 | 30334 ft | 321 kts | 341° |
| 2026-04-24 09:50 | 32.71740 | -86.05467 | 30332 ft | 323 kts | 341° |
| 2026-04-24 09:51 | 32.76091 | -86.06874 | 30332 ft | 324 kts | 341° |
| 2026-04-24 09:51 | 32.80473 | -86.08295 | 30322 ft | 329 kts | 341° |
| 2026-04-24 09:52 | 32.84916 | -86.09736 | 30330 ft | 333 kts | 341° |
| 2026-04-24 09:52 | 32.89422 | -86.11200 | 30332 ft | 338 kts | 341° |
| 2026-04-24 09:53 | 32.93964 | -86.12677 | 30330 ft | 341 kts | 341° |
| 2026-04-24 09:53 | 32.98563 | -86.14172 | 30330 ft | 343 kts | 341° |
| 2026-04-24 09:54 | 33.03173 | -86.15674 | 30331 ft | 344 kts | 341° |
| 2026-04-24 09:54 | 33.07016 | -86.16926 | 30333 ft | 344 kts | 341° |
| 2026-04-24 09:55 | 33.12394 | -86.18681 | 30335 ft | 345 kts | 341° |
| 2026-04-24 09:55 | 33.17019 | -86.20193 | 30336 ft | 345 kts | 341° |
| 2026-04-24 09:56 | 33.20897 | -86.21462 | 30336 ft | 345 kts | 341° |
| 2026-04-24 09:56 | 33.25496 | -86.22968 | 30335 ft | 345 kts | 341° |
| 2026-04-24 09:57 | 33.30127 | -86.24486 | 30332 ft | 345 kts | 341° |
| 2026-04-24 09:57 | 33.34762 | -86.26007 | 30332 ft | 345 kts | 341° |
| 2026-04-24 09:58 | 33.39394 | -86.27529 | 30329 ft | 345 kts | 341° |
| 2026-04-24 09:58 | 33.44014 | -86.29050 | 30054 ft | 351 kts | 341° |
| 2026-04-24 09:59 | 33.46379 | -86.29830 | 29686 ft | 351 kts | 341° |
| 2026-04-24 09:59 | 33.48728 | -86.30603 | 29373 ft | 348 kts | 341° |
| 2026-04-24 09:59 | 33.51060 | -86.31370 | 29053 ft | 346 kts | 341° |
| 2026-04-24 09:59 | 33.53370 | -86.32130 | 28729 ft | 343 kts | 341° |
| 2026-04-24 10:00 | 33.55667 | -86.32887 | 28403 ft | 341 kts | 341° |
| 2026-04-24 10:00 | 33.57949 | -86.33640 | 28077 ft | 339 kts | 341° |
| 2026-04-24 10:00 | 33.60217 | -86.34389 | 27751 ft | 337 kts | 341° |
| 2026-04-24 10:00 | 33.62471 | -86.35134 | 27425 ft | 335 kts | 341° |
| 2026-04-24 10:01 | 33.64689 | -86.35867 | 27102 ft | 333 kts | 341° |
| 2026-04-24 10:01 | 33.66917 | -86.36605 | 26776 ft | 331 kts | 341° |
| 2026-04-24 10:01 | 33.69134 | -86.37338 | 26450 ft | 329 kts | 341° |
| 2026-04-24 10:01 | 33.71335 | -86.38067 | 26125 ft | 328 kts | 341° |
| 2026-04-24 10:02 | 33.73530 | -86.38795 | 25799 ft | 326 kts | 341° |
| 2026-04-24 10:02 | 33.75709 | -86.39518 | 25474 ft | 324 kts | 341° |
| 2026-04-24 10:02 | 33.77881 | -86.40238 | 25148 ft | 323 kts | 341° |
| 2026-04-24 10:02 | 33.80042 | -86.40955 | 24823 ft | 321 kts | 341° |
| 2026-04-24 10:03 | 33.82191 | -86.41669 | 24497 ft | 320 kts | 341° |
| 2026-04-24 10:03 | 33.84329 | -86.42380 | 24172 ft | 318 kts | 341° |
| 2026-04-24 10:03 | 33.86461 | -86.43089 | 23846 ft | 317 kts | 341° |
| 2026-04-24 10:03 | 33.88584 | -86.43795 | 23520 ft | 315 kts | 341° |
| 2026-04-24 10:04 | 33.90673 | -86.44490 | 23198 ft | 314 kts | 341° |
| 2026-04-24 10:04 | 33.92784 | -86.45193 | 22871 ft | 313 kts | 341° |
| 2026-04-24 10:04 | 33.94880 | -86.45891 | 22545 ft | 311 kts | 341° |
| 2026-04-24 10:04 | 33.96967 | -86.46586 | 22219 ft | 310 kts | 341° |
| 2026-04-24 10:05 | 33.99022 | -86.47270 | 21897 ft | 309 kts | 342° |
| 2026-04-24 10:05 | 34.01105 | -86.47875 | 21579 ft | 307 kts | 344° |
| 2026-04-24 10:05 | 34.03194 | -86.48344 | 21263 ft | 304 kts | 347° |
| 2026-04-24 10:05 | 34.05269 | -86.48743 | 20938 ft | 300 kts | 347° |
| 2026-04-24 10:06 | 34.07326 | -86.49144 | 20611 ft | 297 kts | 347° |
| 2026-04-24 10:06 | 34.11379 | -86.49939 | 19959 ft | 293 kts | 347° |
| 2026-04-24 10:06 | 34.13387 | -86.50333 | 19633 ft | 292 kts | 347° |
| 2026-04-24 10:07 | 34.15389 | -86.50725 | 19307 ft | 290 kts | 347° |
| 2026-04-24 10:07 | 34.17360 | -86.51111 | 18985 ft | 289 kts | 347° |
| 2026-04-24 10:07 | 34.19370 | -86.51503 | 18654 ft | 288 kts | 347° |
| 2026-04-24 10:07 | 34.21320 | -86.51885 | 18303 ft | 288 kts | 347° |
| 2026-04-24 10:08 | 34.23300 | -86.52272 | 17885 ft | 288 kts | 347° |
| 2026-04-24 10:08 | 34.25273 | -86.52657 | 17461 ft | 287 kts | 347° |
| 2026-04-24 10:08 | 34.27243 | -86.53042 | 17035 ft | 286 kts | 347° |
| 2026-04-24 10:08 | 34.29203 | -86.53425 | 16609 ft | 284 kts | 347° |
| 2026-04-24 10:09 | 34.31150 | -86.53806 | 16182 ft | 282 kts | 347° |
| 2026-04-24 10:09 | 34.33083 | -86.54184 | 15757 ft | 281 kts | 347° |
| 2026-04-24 10:09 | 34.35006 | -86.54560 | 15331 ft | 279 kts | 347° |
| 2026-04-24 10:09 | 34.36917 | -86.54935 | 14905 ft | 277 kts | 347° |
| 2026-04-24 10:10 | 34.38793 | -86.55302 | 14486 ft | 276 kts | 347° |
| 2026-04-24 10:10 | 34.40688 | -86.55674 | 14059 ft | 275 kts | 348° |
| 2026-04-24 10:10 | 34.42569 | -86.56043 | 13634 ft | 273 kts | 348° |
| 2026-04-24 10:10 | 34.44444 | -86.56411 | 13208 ft | 272 kts | 348° |
| 2026-04-24 10:11 | 34.46304 | -86.56776 | 12779 ft | 271 kts | 348° |
| 2026-04-24 10:11 | 34.48161 | -86.57141 | 12355 ft | 269 kts | 348° |
| 2026-04-24 10:11 | 34.50006 | -86.57503 | 11931 ft | 268 kts | 348° |
| 2026-04-24 10:11 | 34.51825 | -86.57860 | 11493 ft | 257 kts | 348° |
| 2026-04-24 10:12 | 34.53575 | -86.58202 | 11063 ft | 257 kts | 348° |
| 2026-04-24 10:12 | 34.55382 | -86.58561 | 10654 ft | 266 kts | 348° |
| 2026-04-24 10:12 | 34.57215 | -86.58924 | 10229 ft | 267 kts | 348° |
| 2026-04-24 10:12 | 34.59024 | -86.59280 | 10079 ft | 258 kts | 349° |
| 2026-04-24 10:13 | 34.60765 | -86.59622 | 9813 ft | 259 kts | 348° |
| 2026-04-24 10:13 | 34.62560 | -86.59976 | 9374 ft | 262 kts | 349° |
| 2026-04-24 10:13 | 34.64368 | -86.60334 | 8920 ft | 264 kts | 349° |
| 2026-04-24 10:13 | 34.66184 | -86.60692 | 8475 ft | 265 kts | 349° |
| 2026-04-24 10:14 | 34.68010 | -86.61052 | 8026 ft | 265 kts | 349° |
| 2026-04-24 10:14 | 34.69836 | -86.61412 | 7579 ft | 266 kts | 349° |
| 2026-04-24 10:14 | 34.71650 | -86.61770 | 7286 ft | 259 kts | 349° |
| 2026-04-24 10:14 | 34.73383 | -86.62112 | 7107 ft | 252 kts | 349° |
| 2026-04-24 10:15 | 34.75100 | -86.62451 | 6929 ft | 248 kts | 349° |
| 2026-04-24 10:15 | 34.76801 | -86.62787 | 6754 ft | 246 kts | 349° |
| 2026-04-24 10:15 | 34.78434 | -86.63344 | 6577 ft | 242 kts | 333° |
| 2026-04-24 10:15 | 34.79829 | -86.64444 | 6403 ft | 236 kts | 314° |
| 2026-04-24 10:16 | 34.80833 | -86.65987 | 6232 ft | 230 kts | 294° |
| 2026-04-24 10:16 | 34.81556 | -86.67715 | 6064 ft | 228 kts | 292° |
| 2026-04-24 10:16 | 34.82269 | -86.69416 | 5892 ft | 228 kts | 292° |
| 2026-04-24 10:16 | 34.82965 | -86.71139 | 5712 ft | 225 kts | 287° |
| 2026-04-24 10:17 | 34.83263 | -86.72968 | 5541 ft | 218 kts | 265° |
| 2026-04-24 10:17 | 34.83016 | -86.74749 | 5369 ft | 211 kts | 245° |
| 2026-04-24 10:17 | 34.82289 | -86.76263 | 5198 ft | 206 kts | 226° |
| 2026-04-24 10:17 | 34.81200 | -86.77353 | 5042 ft | 202 kts | 208° |
| 2026-04-24 10:18 | 34.79884 | -86.77901 | 4925 ft | 200 kts | 187° |
| 2026-04-24 10:18 | 34.78488 | -86.77824 | 4755 ft | 203 kts | 177° |
| 2026-04-24 10:18 | 34.77087 | -86.77782 | 4568 ft | 199 kts | 181° |
| 2026-04-24 10:18 | 34.75701 | -86.77832 | 4345 ft | 199 kts | 183° |
| 2026-04-24 10:19 | 34.74315 | -86.77907 | 4126 ft | 198 kts | 183° |
| 2026-04-24 10:19 | 34.72958 | -86.77978 | 3934 ft | 194 kts | 183° |
| 2026-04-24 10:19 | 34.71653 | -86.78036 | 3708 ft | 186 kts | 182° |
| 2026-04-24 10:19 | 34.70372 | -86.78082 | 3477 ft | 183 kts | 182° |
| 2026-04-24 10:20 | 34.69120 | -86.78120 | 3290 ft | 174 kts | 182° |
| 2026-04-24 10:20 | 34.67928 | -86.78150 | 3047 ft | 165 kts | 182° |
| 2026-04-24 10:20 | 34.66822 | -86.78173 | 2803 ft | 154 kts | 182° |
| 2026-04-24 10:20 | 34.65717 | -86.78242 | 1880 ft | 172 kts | 185° |
| 2026-04-24 10:21 | 34.64489 | -86.78278 | 1012 ft | 175 kts | 180° |
| 2026-04-24 10:21 | 34.63343 | -86.78249 | 665 ft | 152 kts | 180° |
| 2026-04-24 10:21 | 34.62423 | -86.78284 | 635 ft | 101 kts | 185° |
| 2026-04-24 10:21 | 34.62089 | -86.78283 | 635 ft | 0 kts | 163° |
| 2026-04-24 10:22 | 34.62071 | -86.78259 | 635 ft | 8 kts | 72° |
| 2026-04-24 10:22 | 34.62106 | -86.78219 | 635 ft | 15 kts | 89° |
| 2026-04-24 10:22 | 34.62027 | -86.78114 | 635 ft | 19 kts | 125° |